Etusivu
METAR-TAF:

METAR-TAF

Lentoasemat :

Port Hawkesbury, Nova Scotia, Kanada

Leveyspiiri: 45-40N, Pituuspiiri: 061-23W, korkeus merenpinnasta: 114 m

Tämänhetkinen sää

Tämä raportti tehtiin 41 minuuttia sitten, kello 12.00 UTC
Tuuli 10 kn idästä/koillisesta puuskistuen 17 kn:hen
Lämpötila 4°C
Kosteus 100%
Ilmanpaine 1002 hPa
Näkyvyys: 6.4 km
Pilvistä 300 ft:n korkeudessa
utua

METAR: CYPD 211200Z AUTO 06010G17KT 4SM BR OVC003 04/04 A2958 RMK SLP023

Aika: 09:41 (12:41 UTC)


TAF: puuttuu

Säähavainnot ja -ennusteet yli 4000 lentoasemalta (METAR- ja TAF-raportit).

Käytössä olevat sääasemat on merkitty karttaan keltaisilla ja punaisilla pisteillä.

Aseta hiiri pisteen päälle nähdäksesi sääaseman nimen.

Klikkaa sitten nähdäksesi säähavainnot ja -ennusteet.

Kartan vaihtaminen: klikkaa mustalla rastilla varustettuja vihreitä pisteitä, niin voit zoomata sisään; viivalla varustettua vihreää pistettä, niin voit zoomata ulos tai vihreitä nuolia, niin pääset viereisille kartoille.


METAR-TAF: